This is the latest recevied weather packets stored in our database for station/object OE5XFR. If no packets are shown the sender has not sent any weather packets the latest 1 day(s).
| Time | Temp. | Humidity | Pressure | Rain* | Wind** | Luminosity | Snow |
|---|---|---|---|---|---|---|---|
| 1777995914 | 23.33° C | 28% | 1006 hPa | 0 mm | 1.34 m/s, 79° | - | - |
| 1777995194 | 23.33° C | 25% | 1006 hPa | 0 mm | 1.34 m/s, 14° | - | - |
| 1777994474 | 23.33° C | 25% | 1006 hPa | 0 mm | 1.79 m/s, 61° | - | - |
| 1777993754 | 23.33° C | 26% | 1006 hPa | 0 mm | 3.13 m/s, 82° | - | - |
| 1777993046 | 23.33° C | 26% | 1006 hPa | 0 mm | 3.13 m/s, 79° | - | - |
| 1777992316 | 23.33° C | 26% | 1006 hPa | 0 mm | 3.13 m/s, 79° | - | - |
| 1777991595 | 23.33° C | 26% | 1007 hPa | 0 mm | 2.68 m/s, 96° | - | - |
| 1777990876 | 23.89° C | 24% | 1007 hPa | 0 mm | 1.79 m/s, 89° | - | - |
| 1777990155 | 23.89° C | 24% | 1007 hPa | 0 mm | 0.89 m/s, 102° | - | - |
| 1777989435 | 23.89° C | 23% | 1007 hPa | 0 mm | 6.26 m/s, 66° | - | - |
| 1777988714 | 23.89° C | 23% | 1007 hPa | 0 mm | 6.26 m/s, 66° | - | - |
| 1777987994 | 0.56° C | 53% | 286 hPa | 0 mm | 0 m/s | - | - |
| 1777987274 | 24.44° C | 20% | 1007 hPa | 0 mm | 1.79 m/s, 102° | - | - |
| 1777986555 | 24.44° C | 20% | 1007 hPa | 0 mm | 2.68 m/s, 319° | - | - |
| 1777985835 | 23.89° C | 21% | 1007 hPa | 0 mm | 4.47 m/s, 35° | - | - |
| 1777985115 | 24.44° C | 20% | 1008 hPa | 0 mm | 1.79 m/s, 96° | - | - |
| 1777984395 | 24.44° C | 21% | 1008 hPa | 0 mm | 3.58 m/s, 50° | - | - |
| 1777983675 | 24.44° C | 20% | 1008 hPa | 0 mm | 1.79 m/s, 59° | - | - |
| 1777982955 | 23.89° C | 17% | 1008 hPa | 0 mm | 0.89 m/s, 145° | - | - |
| 1777982235 | 23.89° C | 16% | 1008 hPa | 0 mm | 2.24 m/s, 190° | - | - |
| 1777981515 | 24.44° C | 15% | 1008 hPa | 0 mm | 4.02 m/s, 178° | - | - |
| 1777980795 | 25° C | 16% | 1008 hPa | 0 mm | 2.24 m/s, 254° | - | - |
| 1777980075 | 24.44° C | 18% | 1008 hPa | 0 mm | 1.34 m/s, 263° | - | - |
| 1777979355 | 23.89° C | 20% | 1009 hPa | 0 mm | 1.79 m/s, 297° | - | - |
| 1777978635 | 22.22° C | 21% | 1009 hPa | 0 mm | 0.45 m/s, 6° | - | - |
* Rain latest hour (hover to see other rain measurements)
** Current wind speed in m/s (hover to see current wind gust speed)